sensor_id;sensor_type;location;lat;lon;timestamp;pressure;altitude;pressure_sealevel;temperature;humidity
10732;BME280;5417;42.686;23.244;2023-02-19T00:01:41;94547.72;;;10.42;47.51
10732;BME280;5417;42.686;23.244;2023-02-19T00:04:12;94541.91;;;10.39;47.78
10732;BME280;5417;42.686;23.244;2023-02-19T00:06:42;94554.69;;;10.53;47.51
10732;BME280;5417;42.686;23.244;2023-02-19T00:09:10;94566.28;;;10.49;48.04
10732;BME280;5417;42.686;23.244;2023-02-19T00:11:37;94553.16;;;10.51;48.00
10732;BME280;5417;42.686;23.244;2023-02-19T00:14:05;94536.00;;;10.37;48.36
10732;BME280;5417;42.686;23.244;2023-02-19T00:16:34;94550.78;;;10.36;48.24
10732;BME280;5417;42.686;23.244;2023-02-19T00:19:04;94547.59;;;10.33;48.02
10732;BME280;5417;42.686;23.244;2023-02-19T00:21:31;94515.41;;;10.11;48.94
10732;BME280;5417;42.686;23.244;2023-02-19T00:24:01;94517.06;;;10.12;48.89
10732;BME280;5417;42.686;23.244;2023-02-19T00:26:32;94523.69;;;10.17;48.69
10732;BME280;5417;42.686;23.244;2023-02-19T00:29:00;94513.66;;;10.12;48.73
10732;BME280;5417;42.686;23.244;2023-02-19T00:31:28;94527.75;;;10.21;48.89
10732;BME280;5417;42.686;23.244;2023-02-19T00:33:58;94505.84;;;10.12;49.36
10732;BME280;5417;42.686;23.244;2023-02-19T00:36:26;94500.53;;;10.13;48.68
10732;BME280;5417;42.686;23.244;2023-02-19T00:38:55;94518.25;;;10.31;48.32
10732;BME280;5417;42.686;23.244;2023-02-19T00:41:23;94512.56;;;10.37;48.07
10732;BME280;5417;42.686;23.244;2023-02-19T00:43:54;94520.75;;;10.43;48.09
10732;BME280;5417;42.686;23.244;2023-02-19T00:46:23;94507.38;;;10.48;48.22
10732;BME280;5417;42.686;23.244;2023-02-19T00:48:51;94503.00;;;10.49;48.15
10732;BME280;5417;42.686;23.244;2023-02-19T00:51:20;94475.09;;;10.17;48.22
10732;BME280;5417;42.686;23.244;2023-02-19T00:53:49;94498.63;;;10.27;48.65
10732;BME280;5417;42.686;23.244;2023-02-19T00:56:16;94500.41;;;10.26;48.79
10732;BME280;5417;42.686;23.244;2023-02-19T00:58:45;94491.91;;;10.24;48.71
10732;BME280;5417;42.686;23.244;2023-02-19T01:01:13;94489.53;;;10.21;49.01
10732;BME280;5417;42.686;23.244;2023-02-19T01:03:40;94489.75;;;10.18;48.97
10732;BME280;5417;42.686;23.244;2023-02-19T01:06:09;94495.56;;;10.22;48.32
10732;BME280;5417;42.686;23.244;2023-02-19T01:08:36;94498.63;;;10.27;48.76
10732;BME280;5417;42.686;23.244;2023-02-19T01:11:05;94498.88;;;10.24;48.70
10732;BME280;5417;42.686;23.244;2023-02-19T01:13:32;94462.59;;;10.11;48.97
10732;BME280;5417;42.686;23.244;2023-02-19T01:16:04;94486.47;;;10.05;48.90
10732;BME280;5417;42.686;23.244;2023-02-19T01:18:32;94498.63;;;10.04;49.02
10732;BME280;5417;42.686;23.244;2023-02-19T01:21:04;94482.56;;;9.99;49.32
10732;BME280;5417;42.686;23.244;2023-02-19T01:23:31;94475.97;;;9.95;49.30
10732;BME280;5417;42.686;23.244;2023-02-19T01:26:00;94483.16;;;10.03;48.96
10732;BME280;5417;42.686;23.244;2023-02-19T01:28:29;94468.03;;;10.08;48.39
10732;BME280;5417;42.686;23.244;2023-02-19T01:30:59;94493.31;;;10.28;48.35
10732;BME280;5417;42.686;23.244;2023-02-19T01:33:28;94506.78;;;10.33;48.63
10732;BME280;5417;42.686;23.244;2023-02-19T01:35:55;94510.81;;;10.15;48.59
10732;BME280;5417;42.686;23.244;2023-02-19T01:38:22;94535.53;;;10.21;48.84
10732;BME280;5417;42.686;23.244;2023-02-19T01:40:54;94533.03;;;10.08;48.67
10732;BME280;5417;42.686;23.244;2023-02-19T01:43:21;94524.88;;;10.01;49.05
10732;BME280;5417;42.686;23.244;2023-02-19T01:45:48;94519.81;;;9.89;49.29
10732;BME280;5417;42.686;23.244;2023-02-19T01:48:18;94536.44;;;9.86;49.25
10732;BME280;5417;42.686;23.244;2023-02-19T01:50:50;94566.59;;;10.00;49.58
10732;BME280;5417;42.686;23.244;2023-02-19T01:53:23;94550.19;;;9.99;49.46
10732;BME280;5417;42.686;23.244;2023-02-19T01:55:55;94529.97;;;9.92;49.39
10732;BME280;5417;42.686;23.244;2023-02-19T01:58:26;94528.44;;;9.89;49.54
10732;BME280;5417;42.686;23.244;2023-02-19T02:00:55;94539.53;;;10.02;49.11
10732;BME280;5417;42.686;23.244;2023-02-19T02:03:22;94532.56;;;10.03;49.14
10732;BME280;5417;42.686;23.244;2023-02-19T02:05:55;94513.53;;;10.36;47.09
10732;BME280;5417;42.686;23.244;2023-02-19T02:08:27;94530.41;;;10.64;46.38
10732;BME280;5417;42.686;23.244;2023-02-19T02:11:12;94523.50;;;10.74;47.01
10732;BME280;5417;42.686;23.244;2023-02-19T02:13:39;94529.00;;;10.60;47.73
10732;BME280;5417;42.686;23.244;2023-02-19T02:16:20;94520.63;;;10.23;47.95
10732;BME280;5417;42.686;23.244;2023-02-19T02:19:08;94534.81;;;10.07;48.94
10732;BME280;5417;42.686;23.244;2023-02-19T02:22:08;94526.91;;;9.98;48.97
10732;BME280;5417;42.686;23.244;2023-02-19T02:27:42;94532.81;;;9.89;49.79
10732;BME280;5417;42.686;23.244;2023-02-19T02:30:38;94529.34;;;9.88;49.25
10732;BME280;5417;42.686;23.244;2023-02-19T02:33:17;94535.97;;;9.81;49.96
10732;BME280;5417;42.686;23.244;2023-02-19T02:35:49;94542.94;;;9.80;50.09
10732;BME280;5417;42.686;23.244;2023-02-19T02:38:20;94539.72;;;9.66;49.94
10732;BME280;5417;42.686;23.244;2023-02-19T02:40:48;94552.69;;;9.55;50.85
10732;BME280;5417;42.686;23.244;2023-02-19T02:43:15;94548.91;;;9.47;50.30
10732;BME280;5417;42.686;23.244;2023-02-19T02:45:44;94564.03;;;9.54;50.88
10732;BME280;5417;42.686;23.244;2023-02-19T02:48:24;94564.16;;;9.52;49.90
10732;BME280;5417;42.686;23.244;2023-02-19T02:50:57;94553.03;;;9.50;50.60
10732;BME280;5417;42.686;23.244;2023-02-19T02:53:28;94557.75;;;9.45;51.09
10732;BME280;5417;42.686;23.244;2023-02-19T02:56:16;94546.88;;;9.40;50.25
10732;BME280;5417;42.686;23.244;2023-02-19T02:58:45;94558.00;;;9.42;50.56
10732;BME280;5417;42.686;23.244;2023-02-19T03:01:16;94548.66;;;9.39;50.54
10732;BME280;5417;42.686;23.244;2023-02-19T03:04:07;94553.88;;;9.51;50.47
10732;BME280;5417;42.686;23.244;2023-02-19T03:06:36;94561.44;;;9.54;50.47
10732;BME280;5417;42.686;23.244;2023-02-19T03:09:08;94561.13;;;9.34;50.74
10732;BME280;5417;42.686;23.244;2023-02-19T03:11:38;94559.59;;;9.32;51.54
10732;BME280;5417;42.686;23.244;2023-02-19T03:14:30;94564.28;;;9.27;51.49
10732;BME280;5417;42.686;23.244;2023-02-19T03:17:21;94561.34;;;9.31;51.17
10732;BME280;5417;42.686;23.244;2023-02-19T03:20:12;94567.25;;;9.33;51.30
10732;BME280;5417;42.686;23.244;2023-02-19T03:22:41;94566.66;;;9.30;51.43
10732;BME280;5417;42.686;23.244;2023-02-19T03:25:12;94562.88;;;9.23;51.97
10732;BME280;5417;42.686;23.244;2023-02-19T03:28:00;94581.91;;;9.34;51.95
10732;BME280;5417;42.686;23.244;2023-02-19T03:30:30;94578.00;;;9.29;51.40
10732;BME280;5417;42.686;23.244;2023-02-19T03:33:03;94588.84;;;9.23;51.13
10732;BME280;5417;42.686;23.244;2023-02-19T03:35:35;94594.84;;;9.23;51.21
10732;BME280;5417;42.686;23.244;2023-02-19T03:38:08;94593.31;;;9.21;51.09
10732;BME280;5417;42.686;23.244;2023-02-19T03:40:42;94602.88;;;9.20;51.50
10732;BME280;5417;42.686;23.244;2023-02-19T03:43:16;94581.84;;;9.12;50.85
10732;BME280;5417;42.686;23.244;2023-02-19T03:45:50;94591.59;;;9.32;51.31
10732;BME280;5417;42.686;23.244;2023-02-19T03:48:28;94593.34;;;9.32;51.35
10732;BME280;5417;42.686;23.244;2023-02-19T03:51:03;94582.13;;;9.31;50.16
10732;BME280;5417;42.686;23.244;2023-02-19T03:53:46;94600.09;;;9.34;50.48
10732;BME280;5417;42.686;23.244;2023-02-19T03:56:19;94593.41;;;9.43;50.59
10732;BME280;5417;42.686;23.244;2023-02-19T03:58:54;94582.91;;;9.44;50.66
10732;BME280;5417;42.686;23.244;2023-02-19T04:01:27;94612.09;;;9.48;50.17
10732;BME280;5417;42.686;23.244;2023-02-19T04:04:00;94601.59;;;9.49;50.42
10732;BME280;5417;42.686;23.244;2023-02-19T04:06:31;94606.06;;;9.47;49.74
10732;BME280;5417;42.686;23.244;2023-02-19T04:09:02;94611.06;;;9.62;49.94
10732;BME280;5417;42.686;23.244;2023-02-19T04:11:30;94611.97;;;9.49;49.80
10732;BME280;5417;42.686;23.244;2023-02-19T04:14:01;94614.34;;;9.53;49.46
10732;BME280;5417;42.686;23.244;2023-02-19T04:16:32;94622.81;;;9.43;49.97
10732;BME280;5417;42.686;23.244;2023-02-19T04:19:05;94626.63;;;9.27;50.35
10732;BME280;5417;42.686;23.244;2023-02-19T04:21:37;94632.16;;;9.22;50.40
10732;BME280;5417;42.686;23.244;2023-02-19T04:24:09;94637.56;;;9.19;50.12
10732;BME280;5417;42.686;23.244;2023-02-19T04:26:38;94627.44;;;9.27;50.28
10732;BME280;5417;42.686;23.244;2023-02-19T04:29:05;94612.88;;;9.13;50.42
10732;BME280;5417;42.686;23.244;2023-02-19T04:31:33;94623.69;;;9.31;50.05
10732;BME280;5417;42.686;23.244;2023-02-19T04:34:03;94628.47;;;9.37;49.53
10732;BME280;5417;42.686;23.244;2023-02-19T04:36:30;94627.41;;;9.40;50.57
10732;BME280;5417;42.686;23.244;2023-02-19T04:39:00;94627.34;;;9.29;50.36
10732;BME280;5417;42.686;23.244;2023-02-19T04:41:27;94630.78;;;9.29;50.13
10732;BME280;5417;42.686;23.244;2023-02-19T04:43:54;94643.16;;;9.26;50.39
10732;BME280;5417;42.686;23.244;2023-02-19T04:46:21;94645.03;;;9.24;51.02
10732;BME280;5417;42.686;23.244;2023-02-19T04:48:48;94646.78;;;9.23;50.85
10732;BME280;5417;42.686;23.244;2023-02-19T04:51:16;94647.63;;;9.24;49.91
10732;BME280;5417;42.686;23.244;2023-02-19T04:53:43;94651.28;;;9.21;50.64
10732;BME280;5417;42.686;23.244;2023-02-19T04:56:11;94646.78;;;9.23;50.23
10732;BME280;5417;42.686;23.244;2023-02-19T04:58:39;94656.97;;;9.26;50.37
10732;BME280;5417;42.686;23.244;2023-02-19T05:01:07;94643.09;;;9.14;50.06
10732;BME280;5417;42.686;23.244;2023-02-19T05:03:35;94652.25;;;9.31;50.05
10732;BME280;5417;42.686;23.244;2023-02-19T05:06:06;94629.19;;;9.15;50.39
10732;BME280;5417;42.686;23.244;2023-02-19T05:08:35;94659.78;;;9.23;50.54
10732;BME280;5417;42.686;23.244;2023-02-19T05:11:05;94651.63;;;9.40;50.16
10732;BME280;5417;42.686;23.244;2023-02-19T05:13:32;94639.06;;;9.34;49.79
10732;BME280;5417;42.686;23.244;2023-02-19T05:16:01;94660.06;;;9.31;50.06
10732;BME280;5417;42.686;23.244;2023-02-19T05:18:29;94662.53;;;9.33;49.73
10732;BME280;5417;42.686;23.244;2023-02-19T05:20:57;94658.28;;;9.32;50.07
10732;BME280;5417;42.686;23.244;2023-02-19T05:23:25;94649.84;;;9.41;50.92
10732;BME280;5417;42.686;23.244;2023-02-19T05:25:53;94641.50;;;9.48;50.60
10732;BME280;5417;42.686;23.244;2023-02-19T05:28:20;94627.59;;;9.61;50.69
10732;BME280;5417;42.686;23.244;2023-02-19T05:30:53;94631.13;;;9.95;50.36
10732;BME280;5417;42.686;23.244;2023-02-19T05:33:25;94659.47;;;10.33;50.28
10732;BME280;5417;42.686;23.244;2023-02-19T05:35:53;94654.66;;;10.51;49.21
10732;BME280;5417;42.686;23.244;2023-02-19T05:38:21;94666.81;;;10.72;48.93
10732;BME280;5417;42.686;23.244;2023-02-19T05:40:49;94645.63;;;10.88;48.82
10732;BME280;5417;42.686;23.244;2023-02-19T05:43:18;94624.38;;;11.15;47.65
10732;BME280;5417;42.686;23.244;2023-02-19T05:45:45;94640.88;;;11.36;47.45
10732;BME280;5417;42.686;23.244;2023-02-19T05:48:12;94637.97;;;11.62;46.97
10732;BME280;5417;42.686;23.244;2023-02-19T05:50:39;94665.41;;;12.09;46.00
10732;BME280;5417;42.686;23.244;2023-02-19T05:53:06;94666.25;;;12.40;46.24
10732;BME280;5417;42.686;23.244;2023-02-19T05:55:36;94639.13;;;12.83;44.81
10732;BME280;5417;42.686;23.244;2023-02-19T05:58:03;94648.09;;;13.40;44.32
10732;BME280;5417;42.686;23.244;2023-02-19T06:00:32;94668.94;;;14.09;41.25
10732;BME280;5417;42.686;23.244;2023-02-19T06:03:02;94661.03;;;14.47;41.75
10732;BME280;5417;42.686;23.244;2023-02-19T06:05:32;94668.63;;;14.88;40.49
10732;BME280;5417;42.686;23.244;2023-02-19T06:08:00;94678.50;;;15.31;39.81
10732;BME280;5417;42.686;23.244;2023-02-19T06:10:27;94678.31;;;15.69;39.01
10732;BME280;5417;42.686;23.244;2023-02-19T06:12:54;94688.66;;;15.89;38.58
10732;BME280;5417;42.686;23.244;2023-02-19T06:15:33;94685.56;;;16.29;37.62
10732;BME280;5417;42.686;23.244;2023-02-19T06:18:00;94684.19;;;16.42;37.17
10732;BME280;5417;42.686;23.244;2023-02-19T06:20:27;94683.09;;;16.09;37.13
10732;BME280;5417;42.686;23.244;2023-02-19T06:22:54;94680.78;;;15.89;38.00
10732;BME280;5417;42.686;23.244;2023-02-19T06:25:21;94677.13;;;15.54;37.74
10732;BME280;5417;42.686;23.244;2023-02-19T06:30:58;94685.34;;;15.41;38.66
10732;BME280;5417;42.686;23.244;2023-02-19T06:33:25;94683.19;;;15.55;38.73
10732;BME280;5417;42.686;23.244;2023-02-19T06:39:20;94683.78;;;15.48;38.83
10732;BME280;5417;42.686;23.244;2023-02-19T06:41:49;94671.25;;;15.70;38.34
10732;BME280;5417;42.686;23.244;2023-02-19T06:44:26;94663.16;;;15.99;37.25
10732;BME280;5417;42.686;23.244;2023-02-19T06:47:09;94688.03;;;16.30;36.93
10732;BME280;5417;42.686;23.244;2023-02-19T06:49:39;94684.81;;;16.36;36.98
10732;BME280;5417;42.686;23.244;2023-02-19T06:52:06;94688.75;;;16.15;37.30
10732;BME280;5417;42.686;23.244;2023-02-19T06:54:33;94688.81;;;16.23;37.50
10732;BME280;5417;42.686;23.244;2023-02-19T06:57:00;94689.53;;;16.33;37.28
10732;BME280;5417;42.686;23.244;2023-02-19T06:59:27;94691.41;;;16.40;36.13
10732;BME280;5417;42.686;23.244;2023-02-19T07:01:54;94679.72;;;15.99;37.19
10732;BME280;5417;42.686;23.244;2023-02-19T07:04:23;94697.06;;;16.54;37.68
10732;BME280;5417;42.686;23.244;2023-02-19T07:06:49;94693.47;;;17.32;36.72
10732;BME280;5417;42.686;23.244;2023-02-19T07:09:19;94691.56;;;18.17;35.37
10732;BME280;5417;42.686;23.244;2023-02-19T07:11:46;94685.00;;;18.78;34.14
10732;BME280;5417;42.686;23.244;2023-02-19T07:14:14;94679.59;;;19.27;33.32
10732;BME280;5417;42.686;23.244;2023-02-19T07:16:42;94682.94;;;19.05;32.53
10732;BME280;5417;42.686;23.244;2023-02-19T07:19:09;94689.09;;;17.57;34.79
10732;BME280;5417;42.686;23.244;2023-02-19T07:21:38;94670.69;;;16.81;36.70
10732;BME280;5417;42.686;23.244;2023-02-19T07:24:07;94684.69;;;16.20;37.15
10732;BME280;5417;42.686;23.244;2023-02-19T07:26:35;94690.91;;;16.01;38.26
10732;BME280;5417;42.686;23.244;2023-02-19T07:29:02;94684.75;;;15.75;39.54
10732;BME280;5417;42.686;23.244;2023-02-19T07:31:30;94692.56;;;16.02;39.15
10732;BME280;5417;42.686;23.244;2023-02-19T07:33:57;94689.78;;;15.68;39.06
10732;BME280;5417;42.686;23.244;2023-02-19T07:36:24;94684.97;;;15.54;41.54
10732;BME280;5417;42.686;23.244;2023-02-19T07:38:56;94677.78;;;15.56;39.20
10732;BME280;5417;42.686;23.244;2023-02-19T07:41:23;94672.63;;;15.74;37.46
10732;BME280;5417;42.686;23.244;2023-02-19T07:43:52;94681.84;;;15.78;38.17
10732;BME280;5417;42.686;23.244;2023-02-19T07:46:20;94674.84;;;16.04;37.50
10732;BME280;5417;42.686;23.244;2023-02-19T07:48:47;94673.47;;;16.36;37.76
10732;BME280;5417;42.686;23.244;2023-02-19T07:51:16;94657.78;;;16.96;38.35
10732;BME280;5417;42.686;23.244;2023-02-19T07:53:43;94670.50;;;17.51;37.69
10732;BME280;5417;42.686;23.244;2023-02-19T07:56:12;94662.09;;;18.22;35.64
10732;BME280;5417;42.686;23.244;2023-02-19T07:58:40;94661.91;;;18.72;35.70
10732;BME280;5417;42.686;23.244;2023-02-19T08:01:08;94650.56;;;18.64;34.71
10732;BME280;5417;42.686;23.244;2023-02-19T08:03:36;94648.91;;;18.79;33.05
10732;BME280;5417;42.686;23.244;2023-02-19T08:06:02;94658.41;;;18.96;34.48
10732;BME280;5417;42.686;23.244;2023-02-19T08:08:29;94654.03;;;19.28;34.01
10732;BME280;5417;42.686;23.244;2023-02-19T08:10:59;94651.69;;;18.77;33.25
10732;BME280;5417;42.686;23.244;2023-02-19T08:13:47;94656.16;;;17.95;33.98
10732;BME280;5417;42.686;23.244;2023-02-19T08:16:15;94655.47;;;17.69;34.29
10732;BME280;5417;42.686;23.244;2023-02-19T08:18:45;94669.16;;;17.39;35.30
10732;BME280;5417;42.686;23.244;2023-02-19T08:21:12;94655.88;;;17.64;38.80
10732;BME280;5417;42.686;23.244;2023-02-19T08:23:42;94672.78;;;18.20;36.13
10732;BME280;5417;42.686;23.244;2023-02-19T08:26:10;94655.50;;;18.26;33.76
10732;BME280;5417;42.686;23.244;2023-02-19T08:28:37;94665.41;;;18.24;34.91
10732;BME280;5417;42.686;23.244;2023-02-19T08:31:06;94677.88;;;18.14;35.73
10732;BME280;5417;42.686;23.244;2023-02-19T08:33:36;94662.25;;;18.37;39.05
10732;BME280;5417;42.686;23.244;2023-02-19T08:36:04;94651.38;;;18.48;35.41
10732;BME280;5417;42.686;23.244;2023-02-19T08:38:33;94650.03;;;17.79;34.86
10732;BME280;5417;42.686;23.244;2023-02-19T08:41:03;94664.81;;;17.21;35.43
10732;BME280;5417;42.686;23.244;2023-02-19T08:43:31;94663.06;;;17.04;35.98
10732;BME280;5417;42.686;23.244;2023-02-19T08:45:58;94656.63;;;17.32;36.68
10732;BME280;5417;42.686;23.244;2023-02-19T08:48:26;94649.78;;;17.56;35.88
10732;BME280;5417;42.686;23.244;2023-02-19T08:50:55;94649.69;;;17.74;35.64
10732;BME280;5417;42.686;23.244;2023-02-19T08:53:25;94652.53;;;18.05;36.21
10732;BME280;5417;42.686;23.244;2023-02-19T08:55:52;94643.16;;;18.43;35.83
10732;BME280;5417;42.686;23.244;2023-02-19T08:58:19;94643.63;;;18.71;35.49
10732;BME280;5417;42.686;23.244;2023-02-19T09:00:46;94633.66;;;18.97;34.55
10732;BME280;5417;42.686;23.244;2023-02-19T09:03:13;94630.44;;;19.18;34.05
10732;BME280;5417;42.686;23.244;2023-02-19T09:05:42;94628.56;;;18.96;34.61
10732;BME280;5417;42.686;23.244;2023-02-19T09:08:11;94627.94;;;18.61;36.26
10732;BME280;5417;42.686;23.244;2023-02-19T09:10:38;94622.56;;;17.97;36.33
10732;BME280;5417;42.686;23.244;2023-02-19T09:13:05;94616.03;;;17.51;37.49
10732;BME280;5417;42.686;23.244;2023-02-19T09:15:32;94618.03;;;17.49;38.67
10732;BME280;5417;42.686;23.244;2023-02-19T09:17:59;94606.69;;;17.57;38.22
10732;BME280;5417;42.686;23.244;2023-02-19T09:20:26;94613.09;;;17.54;38.00
10732;BME280;5417;42.686;23.244;2023-02-19T09:22:58;94607.00;;;17.62;37.78
10732;BME280;5417;42.686;23.244;2023-02-19T09:25:25;94619.59;;;17.84;38.60
10732;BME280;5417;42.686;23.244;2023-02-19T09:27:58;94616.81;;;18.02;38.08
10732;BME280;5417;42.686;23.244;2023-02-19T09:30:25;94615.81;;;18.11;37.51
10732;BME280;5417;42.686;23.244;2023-02-19T09:32:52;94614.81;;;18.12;37.68
10732;BME280;5417;42.686;23.244;2023-02-19T09:35:20;94607.59;;;18.06;38.20
10732;BME280;5417;42.686;23.244;2023-02-19T09:37:47;94602.63;;;18.11;38.27
10732;BME280;5417;42.686;23.244;2023-02-19T09:40:16;94610.03;;;18.08;37.22
10732;BME280;5417;42.686;23.244;2023-02-19T09:42:46;94609.72;;;17.86;36.95
10732;BME280;5417;42.686;23.244;2023-02-19T09:45:18;94603.47;;;17.87;36.14
10732;BME280;5417;42.686;23.244;2023-02-19T09:47:47;94606.41;;;17.68;36.29
10732;BME280;5417;42.686;23.244;2023-02-19T09:50:18;94590.69;;;17.34;36.29
10732;BME280;5417;42.686;23.244;2023-02-19T09:52:51;94595.66;;;17.53;37.05
10732;BME280;5417;42.686;23.244;2023-02-19T09:55:28;94569.50;;;17.44;36.40
10732;BME280;5417;42.686;23.244;2023-02-19T09:57:58;94567.19;;;17.32;37.18
10732;BME280;5417;42.686;23.244;2023-02-19T10:00:27;94555.66;;;17.42;36.53
10732;BME280;5417;42.686;23.244;2023-02-19T10:03:02;94566.22;;;17.66;35.53
10732;BME280;5417;42.686;23.244;2023-02-19T10:05:30;94560.19;;;17.82;38.58
10732;BME280;5417;42.686;23.244;2023-02-19T10:07:57;94556.06;;;18.04;35.65
10732;BME280;5417;42.686;23.244;2023-02-19T10:10:29;94555.41;;;18.02;35.48
10732;BME280;5417;42.686;23.244;2023-02-19T10:13:08;94536.13;;;18.25;37.72
10732;BME280;5417;42.686;23.244;2023-02-19T10:15:40;94524.03;;;18.47;37.99
10732;BME280;5417;42.686;23.244;2023-02-19T10:18:08;94525.47;;;18.66;35.49
10732;BME280;5417;42.686;23.244;2023-02-19T10:20:35;94527.88;;;18.28;35.64
10732;BME280;5417;42.686;23.244;2023-02-19T10:23:03;94525.63;;;17.93;35.60
10732;BME280;5417;42.686;23.244;2023-02-19T10:25:33;94521.50;;;17.90;36.59
10732;BME280;5417;42.686;23.244;2023-02-19T10:28:01;94517.25;;;17.73;37.26
10732;BME280;5417;42.686;23.244;2023-02-19T10:30:30;94504.06;;;17.81;36.45
10732;BME280;5417;42.686;23.244;2023-02-19T10:33:00;94500.56;;;17.56;36.72
10732;BME280;5417;42.686;23.244;2023-02-19T10:35:27;94502.66;;;17.12;36.91
10732;BME280;5417;42.686;23.244;2023-02-19T10:37:55;94484.56;;;17.01;37.51
10732;BME280;5417;42.686;23.244;2023-02-19T10:40:24;94490.81;;;16.92;37.12
10732;BME280;5417;42.686;23.244;2023-02-19T10:42:56;94498.78;;;16.66;37.17
10732;BME280;5417;42.686;23.244;2023-02-19T10:45:37;94487.00;;;16.78;37.53
10732;BME280;5417;42.686;23.244;2023-02-19T10:48:22;94477.81;;;16.90;36.87
10732;BME280;5417;42.686;23.244;2023-02-19T10:50:51;94468.59;;;16.86;36.19
10732;BME280;5417;42.686;23.244;2023-02-19T10:53:22;94479.16;;;17.11;36.79
10732;BME280;5417;42.686;23.244;2023-02-19T10:56:05;94463.09;;;17.30;36.77
10732;BME280;5417;42.686;23.244;2023-02-19T10:58:34;94462.09;;;17.55;38.17
10732;BME280;5417;42.686;23.244;2023-02-19T11:01:10;94450.09;;;17.85;38.72
10732;BME280;5417;42.686;23.244;2023-02-19T11:03:38;94439.50;;;18.02;35.22
10732;BME280;5417;42.686;23.244;2023-02-19T11:06:06;94440.97;;;18.04;35.21
10732;BME280;5417;42.686;23.244;2023-02-19T11:08:44;94421.53;;;18.13;36.03
10732;BME280;5417;42.686;23.244;2023-02-19T11:11:21;94437.03;;;18.47;36.50
10732;BME280;5417;42.686;23.244;2023-02-19T11:13:50;94432.38;;;18.66;36.89
10732;BME280;5417;42.686;23.244;2023-02-19T11:16:17;94423.28;;;18.68;35.04
10732;BME280;5417;42.686;23.244;2023-02-19T11:18:52;94413.97;;;18.88;36.50
10732;BME280;5417;42.686;23.244;2023-02-19T11:21:25;94413.19;;;19.03;34.77
10732;BME280;5417;42.686;23.244;2023-02-19T11:23:57;94406.56;;;19.07;35.31
10732;BME280;5417;42.686;23.244;2023-02-19T11:26:26;94397.59;;;19.16;33.48
10732;BME280;5417;42.686;23.244;2023-02-19T11:28:59;94396.13;;;19.13;33.79
10732;BME280;5417;42.686;23.244;2023-02-19T11:31:28;94391.56;;;18.84;33.05
10732;BME280;5417;42.686;23.244;2023-02-19T11:33:57;94377.56;;;18.84;33.27
10732;BME280;5417;42.686;23.244;2023-02-19T11:36:27;94379.69;;;18.88;33.42
10732;BME280;5417;42.686;23.244;2023-02-19T11:38:56;94374.69;;;18.94;35.39
10732;BME280;5417;42.686;23.244;2023-02-19T11:41:48;94375.63;;;19.01;35.43
10732;BME280;5417;42.686;23.244;2023-02-19T11:44:26;94375.31;;;19.18;34.10
10732;BME280;5417;42.686;23.244;2023-02-19T11:47:13;94354.84;;;19.20;32.07
10732;BME280;5417;42.686;23.244;2023-02-19T11:49:50;94362.91;;;19.27;34.68
10732;BME280;5417;42.686;23.244;2023-02-19T11:52:27;94357.63;;;19.42;34.30
10732;BME280;5417;42.686;23.244;2023-02-19T11:55:06;94351.28;;;19.51;33.61
10732;BME280;5417;42.686;23.244;2023-02-19T11:57:42;94348.19;;;19.47;33.53
10732;BME280;5417;42.686;23.244;2023-02-19T12:00:22;94345.44;;;19.41;33.00
10732;BME280;5417;42.686;23.244;2023-02-19T12:06:12;94339.38;;;19.55;32.83
10732;BME280;5417;42.686;23.244;2023-02-19T12:09:17;94328.63;;;19.57;31.85
10732;BME280;5417;42.686;23.244;2023-02-19T12:12:05;94325.69;;;19.51;32.45
10732;BME280;5417;42.686;23.244;2023-02-19T12:14:47;94325.00;;;19.58;32.60
10732;BME280;5417;42.686;23.244;2023-02-19T12:17:35;94303.41;;;19.54;32.18
10732;BME280;5417;42.686;23.244;2023-02-19T12:20:13;94312.34;;;19.53;32.44
10732;BME280;5417;42.686;23.244;2023-02-19T12:22:52;94310.94;;;19.42;31.98
10732;BME280;5417;42.686;23.244;2023-02-19T12:25:26;94318.03;;;19.42;31.29
10732;BME280;5417;42.686;23.244;2023-02-19T12:28:10;94295.94;;;19.43;31.46
10732;BME280;5417;42.686;23.244;2023-02-19T12:31:08;94298.56;;;19.43;32.37
10732;BME280;5417;42.686;23.244;2023-02-19T12:34:09;94276.97;;;19.24;32.13
10732;BME280;5417;42.686;23.244;2023-02-19T12:36:43;94293.47;;;19.41;32.67
10732;BME280;5417;42.686;23.244;2023-02-19T12:39:24;94275.09;;;19.33;31.81
10732;BME280;5417;42.686;23.244;2023-02-19T12:42:02;94263.88;;;19.31;32.78
10732;BME280;5417;42.686;23.244;2023-02-19T12:44:39;94266.97;;;19.35;32.37
10732;BME280;5417;42.686;23.244;2023-02-19T12:47:13;94258.53;;;19.39;31.60
10732;BME280;5417;42.686;23.244;2023-02-19T12:49:46;94248.13;;;19.38;32.47
10732;BME280;5417;42.686;23.244;2023-02-19T12:52:19;94232.28;;;19.23;32.04
10732;BME280;5417;42.686;23.244;2023-02-19T12:54:51;94248.81;;;19.54;31.17
10732;BME280;5417;42.686;23.244;2023-02-19T12:57:22;94243.53;;;19.54;31.91
10732;BME280;5417;42.686;23.244;2023-02-19T12:59:52;94233.47;;;19.50;30.65
10732;BME280;5417;42.686;23.244;2023-02-19T13:02:28;94221.19;;;19.42;30.69
10732;BME280;5417;42.686;23.244;2023-02-19T13:05:07;94230.13;;;19.27;31.85
10732;BME280;5417;42.686;23.244;2023-02-19T13:07:45;94217.00;;;19.18;31.86
10732;BME280;5417;42.686;23.244;2023-02-19T13:10:25;94223.38;;;19.39;31.38
10732;BME280;5417;42.686;23.244;2023-02-19T13:12:53;94218.66;;;19.49;31.38
10732;BME280;5417;42.686;23.244;2023-02-19T13:15:29;94216.75;;;19.58;31.54
10732;BME280;5417;42.686;23.244;2023-02-19T13:17:59;94199.34;;;19.48;31.37
10732;BME280;5417;42.686;23.244;2023-02-19T13:20:31;94199.47;;;19.55;31.63
10732;BME280;5417;42.686;23.244;2023-02-19T13:23:04;94197.72;;;19.47;31.78
10732;BME280;5417;42.686;23.244;2023-02-19T13:26:04;94206.56;;;19.54;31.53
10732;BME280;5417;42.686;23.244;2023-02-19T13:28:44;94191.78;;;19.45;31.59
10732;BME280;5417;42.686;23.244;2023-02-19T13:31:33;94184.72;;;19.31;31.74
10732;BME280;5417;42.686;23.244;2023-02-19T13:34:13;94178.16;;;19.27;31.35
10732;BME280;5417;42.686;23.244;2023-02-19T13:36:47;94173.88;;;19.26;31.72
10732;BME280;5417;42.686;23.244;2023-02-19T13:39:16;94180.41;;;19.15;31.64